Time;durP1;ratioP1;P1;durP2;ratioP2;P2;SDS_P1;SDS_P2;PMS_P1;PMS_P2;Temp;Humidity;BMP_temperature;BMP_pressure;BME280_temperature;BME280_humidity;BME280_pressure;Samples;Min_cycle;Max_cycle;Signal;HPM_P1;HPM_P2
2022/07/14 00:03:50;;;;;;;2.80;1.60;;;24.70;54.90;;;;;;220867;1267;22541;-52
2022/07/14 00:09:05;;;;;;;2.80;1.70;;;24.60;54.80;;;;;;220506;1270;22784;-55
2022/07/14 00:14:10;;;;;;;2.00;1.40;;;24.60;54.80;;;;;;221009;1270;22770;-53
2022/07/14 00:19:14;;;;;;;2.50;1.70;;;24.70;55.20;;;;;;220418;1270;22550;-51
2022/07/14 00:24:18;;;;;;;2.40;1.50;;;24.70;54.80;;;;;;220442;1270;22570;-54
2022/07/14 00:29:22;;;;;;;3.30;1.50;;;24.70;54.80;;;;;;220818;1268;24215;-52
2022/07/14 00:34:26;;;;;;;2.10;1.30;;;24.60;54.80;;;;;;220631;1267;25242;-51
2022/07/14 00:39:54;;;;;;;2.50;1.50;;;24.70;54.80;;;;;;220750;1268;22530;-50
2022/07/14 00:44:53;;;;;;;2.40;1.80;;;24.70;54.80;;;;;;220223;1270;22676;-51
2022/07/14 00:49:57;;;;;;;2.00;1.30;;;24.60;54.80;;;;;;220728;1267;22556;-53
2022/07/14 00:55:03;;;;;;;2.20;1.50;;;24.60;54.80;;;;;;220265;1267;22632;-51
2022/07/14 01:00:09;;;;;;;2.10;1.50;;;24.60;55.00;;;;;;220594;1267;22523;-50
2022/07/14 01:05:13;;;;;;;2.00;1.50;;;24.60;54.80;;;;;;220805;1269;23052;-53
2022/07/14 01:10:17;;;;;;;2.30;1.40;;;24.60;54.80;;;;;;220294;1271;25237;-52
2022/07/14 01:15:20;;;;;;;2.40;1.70;;;24.60;54.80;;;;;;220246;1270;22646;-50
2022/07/14 01:20:27;;;;;;;2.10;1.40;;;24.60;55.10;;;;;;220778;1268;22539;-52
2022/07/14 01:25:31;;;;;;;2.40;1.50;;;24.60;54.80;;;;;;220677;1268;25303;-49
2022/07/14 01:30:35;;;;;;;2.10;1.40;;;24.60;54.80;;;;;;220628;1271;22642;-55
2022/07/14 01:35:38;;;;;;;2.00;1.20;;;24.60;54.80;;;;;;220136;1271;532276;-50
2022/07/14 01:40:42;;;;;;;2.40;1.70;;;24.60;54.80;;;;;;220735;1270;22557;-50
2022/07/14 01:45:47;;;;;;;2.60;1.60;;;24.60;54.80;;;;;;220824;1268;22632;-49
2022/07/14 01:50:51;;;;;;;2.20;1.40;;;24.50;54.80;;;;;;220471;1270;23197;-53
2022/07/14 01:55:55;;;;;;;2.40;1.50;;;24.50;54.80;;;;;;220655;1270;22535;-52
2022/07/14 02:06:23;;;;;;;2.30;1.50;;;24.60;54.80;;;;;;220292;1269;22521;-50
2022/07/14 02:16:50;;;;;;;3.10;1.70;;;24.50;54.80;;;;;;220359;1269;24321;-53
2022/07/14 02:21:54;;;;;;;2.00;1.40;;;24.50;54.80;;;;;;220317;1267;22545;-51
2022/07/14 02:26:58;;;;;;;2.30;1.40;;;24.50;54.80;;;;;;220730;1271;22810;-52
2022/07/14 02:32:02;;;;;;;2.80;1.30;;;24.50;54.70;;;;;;220072;1269;25236;-51
2022/07/14 02:37:06;;;;;;;2.30;1.50;;;24.50;54.60;;;;;;220234;1268;25243;-52
2022/07/14 02:42:09;;;;;;;2.40;1.80;;;24.50;54.60;;;;;;220568;1271;22544;-50
2022/07/14 02:47:13;;;;;;;2.30;1.60;;;24.50;54.60;;;;;;220486;1268;24800;-52
2022/07/14 02:52:16;;;;;;;3.00;1.50;;;24.50;54.60;;;;;;220557;1270;22797;-52
2022/07/14 02:57:22;;;;;;;2.70;1.60;;;24.50;54.60;;;;;;220581;1270;24293;-55
2022/07/14 03:02:27;;;;;;;2.20;1.50;;;24.50;54.70;;;;;;220821;1268;22526;-54
2022/07/14 03:07:31;;;;;;;2.30;1.60;;;24.50;54.60;;;;;;220831;1269;22545;-52
2022/07/14 03:12:36;;;;;;;2.10;1.50;;;24.50;54.60;;;;;;220623;1269;22532;-51
2022/07/14 03:17:40;;;;;;;2.90;1.60;;;24.50;54.70;;;;;;220793;1268;25368;-52
2022/07/14 03:22:45;;;;;;;3.00;1.80;;;24.50;54.70;;;;;;220465;1268;24231;-49
2022/07/14 03:27:56;;;;;;;2.20;1.40;;;24.50;54.60;;;;;;220545;1268;22543;-51
2022/07/14 03:33:04;;;;;;;3.00;1.70;;;24.40;54.60;;;;;;220362;1268;22616;-51
2022/07/14 03:38:08;;;;;;;2.30;1.60;;;24.50;54.70;;;;;;220396;1268;22584;-51
2022/07/14 03:43:34;;;;;;;2.60;1.50;;;24.50;54.60;;;;;;220403;1268;22594;-52
2022/07/14 03:48:39;;;;;;;2.50;1.60;;;24.40;54.60;;;;;;220321;1269;24264;-51
2022/07/14 03:53:44;;;;;;;2.50;1.40;;;24.40;54.60;;;;;;220336;1268;24296;-52
2022/07/14 03:58:49;;;;;;;2.10;1.40;;;24.40;54.60;;;;;;220548;1268;22580;-51
2022/07/14 04:03:56;;;;;;;2.00;1.30;;;24.40;54.70;;;;;;219901;1271;24215;-52
2022/07/14 04:09:03;;;;;;;2.50;1.40;;;24.40;54.60;;;;;;220741;1268;22632;-53
2022/07/14 04:14:10;;;;;;;3.30;1.60;;;24.40;54.70;;;;;;220841;1268;24394;-52
2022/07/14 04:19:14;;;;;;;2.80;1.60;;;24.40;54.70;;;;;;220778;1268;24329;-52
2022/07/14 04:24:19;;;;;;;2.50;1.60;;;24.40;54.70;;;;;;220525;1268;22526;-51
2022/07/14 04:29:23;;;;;;;1.60;1.10;;;24.40;54.70;;;;;;220798;1267;22537;-53
2022/07/14 04:34:27;;;;;;;2.20;1.50;;;24.40;54.70;;;;;;220386;1268;24281;-50
2022/07/14 04:39:31;;;;;;;2.70;1.70;;;24.40;54.70;;;;;;220276;1270;22704;-50
2022/07/14 04:44:34;;;;;;;2.00;1.40;;;24.40;54.70;;;;;;220854;1267;22539;-51
2022/07/14 04:55:05;;;;;;;2.40;1.60;;;24.40;54.50;;;;;;220476;1267;22544;-53
2022/07/14 05:00:17;;;;;;;3.10;1.50;;;24.40;54.60;;;;;;220085;1268;24276;-55
2022/07/14 05:05:21;;;;;;;2.40;1.40;;;24.40;54.60;;;;;;220464;1267;22544;-53
2022/07/14 05:10:25;;;;;;;2.30;1.50;;;24.40;54.50;;;;;;220594;1268;25240;-51
2022/07/14 05:15:30;;;;;;;2.10;1.30;;;24.50;54.50;;;;;;220458;1267;22745;-52
2022/07/14 05:20:35;;;;;;;1.70;1.30;;;24.50;54.50;;;;;;220386;1267;23987;-53
2022/07/14 05:25:39;;;;;;;2.20;1.50;;;24.50;54.80;;;;;;220238;1268;25357;-50
2022/07/14 05:30:47;;;;;;;2.60;1.40;;;24.40;54.60;;;;;;220459;1267;22555;-55
2022/07/14 05:36:15;;;;;;;2.50;1.60;;;24.50;54.50;;;;;;220273;1270;22689;-50
2022/07/14 05:41:22;;;;;;;2.00;1.40;;;24.50;54.40;;;;;;220237;1268;25360;-52
2022/07/14 05:46:26;;;;;;;2.70;1.60;;;24.50;53.90;;;;;;220241;1268;24285;-51
2022/07/14 05:51:31;;;;;;;2.20;1.50;;;24.50;54.40;;;;;;220874;1267;22532;-53
2022/07/14 05:56:39;;;;;;;2.30;1.60;;;24.50;54.40;;;;;;220736;1267;23173;-52
2022/07/14 06:01:43;;;;;;;2.30;1.50;;;24.50;54.40;;;;;;220403;1267;24499;-50
2022/07/14 06:06:48;;;;;;;2.70;1.70;;;24.50;54.30;;;;;;220359;1267;24374;-54
2022/07/14 06:11:52;;;;;;;2.30;1.50;;;24.50;54.30;;;;;;220304;1268;22544;-54
2022/07/14 06:16:57;;;;;;;2.90;1.70;;;24.50;54.30;;;;;;220451;1267;22528;-52
2022/07/14 06:22:06;;;;;;;2.30;1.50;;;24.50;54.20;;;;;;220316;1268;22528;-51
2022/07/14 06:27:10;;;;;;;2.30;1.60;;;24.60;54.30;;;;;;220422;1267;22534;-52
2022/07/14 06:32:15;;;;;;;2.40;1.50;;;24.50;54.30;;;;;;220201;1266;22528;-50
2022/07/14 06:37:19;;;;;;;2.60;1.80;;;24.60;54.40;;;;;;220347;1268;22554;-51
2022/07/14 06:42:23;;;;;;;2.90;2.10;;;24.60;54.30;;;;;;220321;1267;22516;-49
2022/07/14 06:47:38;;;;;;;2.40;1.50;;;24.50;54.50;;;;;;220329;1267;24340;-48
2022/07/14 06:52:42;;;;;;;3.70;2.40;;;24.60;54.60;;;;;;220286;1267;22528;-55
2022/07/14 06:57:46;;;;;;;2.50;1.80;;;24.60;54.60;;;;;;220057;1267;24312;-53
2022/07/14 07:02:51;;;;;;;2.60;1.80;;;24.60;54.70;;;;;;220256;1268;22544;-52
2022/07/14 07:08:00;;;;;;;5.60;2.00;;;24.60;55.30;;;;;;220534;1267;25170;-55
2022/07/14 07:13:03;;;;;;;2.90;1.80;;;24.70;55.00;;;;;;220609;1267;22540;-55
2022/07/14 07:18:08;;;;;;;4.90;1.90;;;24.70;55.10;;;;;;220226;1270;22702;-55
2022/07/14 07:23:12;;;;;;;4.60;1.80;;;24.80;55.20;;;;;;220623;1267;22543;-54
2022/07/14 07:28:15;;;;;;;2.50;1.70;;;24.80;55.20;;;;;;220597;1267;22492;-54
2022/07/14 07:33:19;;;;;;;2.30;1.70;;;24.80;55.10;;;;;;220573;1267;22558;-53
2022/07/14 07:38:23;;;;;;;3.70;2.00;;;24.80;55.10;;;;;;220335;1267;24211;-54
2022/07/14 07:43:27;;;;;;;3.90;1.80;;;24.80;55.10;;;;;;220596;1267;25237;-54
2022/07/14 07:48:32;;;;;;;3.80;2.00;;;24.80;55.10;;;;;;220523;1267;22804;-54
2022/07/14 07:53:41;;;;;;;3.40;1.70;;;24.80;55.30;;;;;;220488;1267;23185;-54
2022/07/14 07:58:47;;;;;;;3.20;2.00;;;24.70;55.10;;;;;;220119;1267;24235;-55
2022/07/14 08:03:52;;;;;;;2.80;1.90;;;24.80;55.10;;;;;;220330;1267;22546;-57
2022/07/14 08:08:55;;;;;;;4.30;2.00;;;24.80;55.00;;;;;;220371;1267;26288;-57
2022/07/14 08:14:00;;;;;;;5.60;2.10;;;24.80;55.10;;;;;;220424;1268;25332;-54
2022/07/14 08:19:05;;;;;;;3.00;2.00;;;24.80;55.10;;;;;;220837;1268;22833;-54
2022/07/14 08:24:09;;;;;;;3.60;2.30;;;24.80;54.90;;;;;;220738;1268;22528;-52
2022/07/14 08:29:14;;;;;;;3.00;1.90;;;24.90;55.00;;;;;;220291;1267;22848;-55
2022/07/14 08:34:21;;;;;;;2.90;1.80;;;24.90;55.10;;;;;;220524;1268;23179;-58
2022/07/14 08:39:25;;;;;;;3.00;1.80;;;24.80;55.00;;;;;;220653;1267;22548;-51
2022/07/14 08:44:30;;;;;;;2.50;2.00;;;24.90;55.10;;;;;;220690;1267;25413;-54
2022/07/14 08:49:34;;;;;;;4.10;2.20;;;24.90;55.30;;;;;;220808;1268;24356;-56
2022/07/14 08:55:07;;;;;;;2.40;1.60;;;24.90;55.00;;;;;;220647;1267;22528;-56
2022/07/14 09:00:15;;;;;;;2.60;2.00;;;24.90;55.00;;;;;;220728;1267;22775;-55
2022/07/14 09:05:24;;;;;;;3.40;2.20;;;24.90;55.10;;;;;;220433;1268;26733;-52
2022/07/14 09:10:31;;;;;;;2.50;1.80;;;24.90;54.50;;;;;;220123;1268;22535;-53
2022/07/14 09:16:21;;;;;;;2.90;1.90;;;24.90;55.00;;;;;;220498;1267;22550;-55
2022/07/14 09:21:28;;;;;;;4.60;2.00;;;25.00;55.00;;;;;;220201;1267;22756;-54
2022/07/14 09:26:53;;;;;;;3.10;1.90;;;25.10;54.90;;;;;;220506;1270;24249;-55
2022/07/14 09:32:12;;;;;;;2.70;1.90;;;25.10;54.70;;;;;;220924;1267;24520;-55
2022/07/14 09:37:37;;;;;;;3.60;2.10;;;25.20;55.00;;;;;;220267;1267;25388;-55
2022/07/14 09:42:50;;;;;;;2.30;1.90;;;25.20;55.20;;;;;;220116;1267;23047;-57
2022/07/14 09:48:11;;;;;;;3.60;1.90;;;25.20;54.90;;;;;;220190;1267;25347;-55
2022/07/14 09:53:16;;;;;;;;;;;25.20;55.30;;;;;;220364;1267;25343;-54
2022/07/14 09:58:25;;;;;;;3.90;2.30;;;25.30;55.20;;;;;;220252;1267;24212;-57
2022/07/14 10:03:44;;;;;;;;;;;25.30;55.20;;;;;;220218;1267;22818;-60
2022/07/14 10:08:54;;;;;;;4.50;2.10;;;25.30;55.20;;;;;;220194;1267;22632;-53
2022/07/14 10:14:08;;;;;;;3.00;2.40;;;25.40;55.40;;;;;;220007;1267;22855;-58
2022/07/14 10:19:14;;;;;;;3.40;2.30;;;25.40;55.30;;;;;;220121;1267;23279;-57
2022/07/14 10:24:20;;;;;;;4.30;2.20;;;25.40;55.10;;;;;;220500;1267;22546;-56
2022/07/14 10:29:32;;;;;;;3.30;2.20;;;25.40;55.10;;;;;;220353;1267;25245;-56
2022/07/14 10:34:45;;;;;;;2.50;2.20;;;25.40;55.10;;;;;;220398;1267;26522;-55
2022/07/14 10:40:07;;;;;;;3.20;2.00;;;25.50;55.00;;;;;;220115;1270;24372;-55
2022/07/14 10:45:19;;;;;;;3.30;2.10;;;25.60;55.00;;;;;;220453;1267;24219;-57
2022/07/14 10:50:23;;;;;;;2.60;2.20;;;25.60;55.30;;;;;;220090;1267;22550;-57
2022/07/14 10:55:27;;;;;;;3.60;2.30;;;25.70;54.90;;;;;;220261;1267;25823;-58
2022/07/14 11:01:17;;;;;;;3.20;2.20;;;25.70;55.20;;;;;;220097;1267;22544;-56
2022/07/14 11:06:17;;;;;;;3.60;2.10;;;25.70;54.90;;;;;;220570;1268;25247;-55
2022/07/14 11:11:23;;;;;;;3.00;2.00;;;25.70;55.30;;;;;;220426;1267;25239;-56
2022/07/14 11:16:45;;;;;;;2.80;2.40;;;25.70;54.90;;;;;;220243;1268;22590;-55
2022/07/14 11:22:19;;;;;;;4.40;2.00;;;25.70;54.00;;;;;;220401;1269;22524;-53
2022/07/14 11:27:36;;;;;;;2.80;2.30;;;25.50;56.30;;;;;;220301;1268;24313;-51
2022/07/14 11:32:45;;;;;;;4.30;2.60;;;25.20;52.40;;;;;;220583;1267;22559;-48
2022/07/14 11:38:24;;;;;;;3.20;2.30;;;25.30;54.10;;;;;;220385;1267;25242;-48
2022/07/14 11:43:45;;;;;;;2.80;2.10;;;25.50;54.00;;;;;;220331;1267;22547;-48
2022/07/14 11:48:55;;;;;;;2.60;2.20;;;25.60;54.00;;;;;;220607;1267;22543;-50
2022/07/14 11:54:04;;;;;;;2.40;2.20;;;25.70;54.20;;;;;;220300;1267;24420;-52
2022/07/14 11:59:09;;;;;;;3.50;2.20;;;25.70;54.30;;;;;;220425;1268;22532;-50
2022/07/14 12:04:17;;;;;;;3.60;2.30;;;25.70;54.40;;;;;;220650;1267;23988;-50
2022/07/14 12:09:38;;;;;;;4.70;2.40;;;25.70;54.50;;;;;;220600;1267;25351;-50
2022/07/14 12:14:54;;;;;;;3.10;2.00;;;25.70;54.80;;;;;;220432;1268;22576;-55
2022/07/14 12:19:57;;;;;;;3.40;2.50;;;25.70;57.80;;;;;;220347;1268;25354;-51
2022/07/14 12:25:04;;;;;;;5.40;2.70;;;25.60;54.40;;;;;;220530;1267;22608;-51
2022/07/14 12:30:09;;;;;;;5.90;2.60;;;25.50;57.90;;;;;;220184;1267;22681;-50
2022/07/14 12:35:14;;;;;;;3.10;2.40;;;25.30;55.20;;;;;;220523;1267;22554;-51
2022/07/14 12:40:18;;;;;;;3.60;2.70;;;25.40;58.10;;;;;;220464;1267;24290;-53
2022/07/14 12:45:24;;;;;;;3.70;2.70;;;25.40;54.20;;;;;;220748;1267;22548;-52
2022/07/14 12:50:29;;;;;;;4.60;2.90;;;25.40;58.20;;;;;;220237;1267;25246;-54
2022/07/14 12:55:34;;;;;;;6.10;3.00;;;25.50;55.70;;;;;;220181;1268;22584;-49
2022/07/14 13:00:40;;;;;;;4.20;2.60;;;25.20;57.30;;;;;;219952;1270;22682;-50
2022/07/14 13:05:45;;;;;;;5.60;3.10;;;25.40;57.30;;;;;;220313;1270;24295;-53
2022/07/14 13:10:57;;;;;;;4.10;2.90;;;25.20;55.60;;;;;;220421;1267;22788;-51
2022/07/14 13:16:18;;;;;;;3.90;2.90;;;25.30;58.50;;;;;;220159;1269;24222;-51
2022/07/14 13:21:55;;;;;;;3.70;2.70;;;25.50;55.70;;;;;;220361;1267;22551;-55
2022/07/14 13:27:04;;;;;;;3.40;2.60;;;25.30;58.50;;;;;;220497;1267;25387;-52
2022/07/14 13:32:14;;;;;;;3.80;3.00;;;25.40;57.70;;;;;;219946;1267;486147;-52
2022/07/14 13:37:18;;;;;;;3.90;2.80;;;25.10;57.80;;;;;;220738;1267;23138;-50
2022/07/14 13:42:22;;;;;;;4.30;2.50;;;25.30;58.00;;;;;;220436;1267;22526;-52
2022/07/14 13:47:26;;;;;;;3.40;2.60;;;25.20;54.50;;;;;;220691;1267;23687;-49
2022/07/14 13:52:29;;;;;;;3.50;2.40;;;25.20;58.50;;;;;;220323;1269;22516;-50
2022/07/14 13:57:33;;;;;;;3.20;2.60;;;25.40;57.50;;;;;;220902;1267;22618;-51
2022/07/14 14:07:59;;;;;;;3.80;3.00;;;25.20;58.20;;;;;;220626;1267;25239;-51
2022/07/14 14:13:03;;;;;;;4.00;2.90;;;25.20;54.90;;;;;;220810;1268;22570;-54
2022/07/14 14:18:07;;;;;;;3.60;2.90;;;25.10;58.70;;;;;;220868;1267;24432;-52
2022/07/14 14:23:11;;;;;;;3.30;2.80;;;25.40;57.70;;;;;;220583;1267;22528;-52
2022/07/14 14:28:19;;;;;;;2.80;2.40;;;25.10;55.30;;;;;;220457;1267;22554;-52
2022/07/14 14:33:23;;;;;;;21.20;5.90;;;25.30;55.60;;;;;;220449;1267;24367;-56
2022/07/14 14:38:27;;;;;;;4.20;2.60;;;25.40;58.90;;;;;;220594;1267;22608;-51
2022/07/14 14:43:31;;;;;;;3.30;2.50;;;25.50;55.60;;;;;;220615;1267;22551;-51
2022/07/14 14:48:36;;;;;;;7.20;3.50;;;25.50;55.40;;;;;;220478;1270;24427;-48
2022/07/14 14:53:40;;;;;;;8.80;2.90;;;25.60;55.80;;;;;;220614;1267;22556;-53
2022/07/14 14:58:43;;;;;;;7.10;3.20;;;25.60;55.90;;;;;;221020;1267;22570;-49
2022/07/14 15:03:51;;;;;;;12.90;3.50;;;25.60;58.10;;;;;;220874;1267;22563;-50
2022/07/14 15:08:57;;;;;;;7.50;3.10;;;25.20;58.50;;;;;;220956;1267;25412;-49
2022/07/14 15:14:00;;;;;;;7.30;3.00;;;25.30;60.70;;;;;;220537;1267;23930;-49
2022/07/14 15:19:05;;;;;;;6.30;3.30;;;25.10;58.90;;;;;;220439;1267;25235;-50
2022/07/14 15:24:09;;;;;;;6.30;3.50;;;25.20;58.30;;;;;;220547;1267;22525;-50
2022/07/14 15:29:19;;;;;;;5.00;3.00;;;25.00;58.80;;;;;;219999;1270;22548;-50
2022/07/14 15:34:23;;;;;;;6.60;2.90;;;25.10;57.40;;;;;;220440;1267;22603;-50
2022/07/14 15:44:57;;;;;;;7.60;3.30;;;25.10;59.30;;;;;;220556;1267;22679;-54
2022/07/14 15:50:01;;;;;;;5.70;2.90;;;25.20;58.60;;;;;;220872;1267;24361;-52
2022/07/14 15:55:08;;;;;;;4.40;3.10;;;25.30;57.80;;;;;;221063;1267;25454;-53
2022/07/14 16:00:12;;;;;;;5.90;3.30;;;25.40;57.80;;;;;;220497;1267;22575;-54
2022/07/14 16:05:16;;;;;;;6.50;3.00;;;25.40;57.40;;;;;;220594;1267;22547;-53
2022/07/14 16:10:20;;;;;;;3.80;2.60;;;25.40;57.20;;;;;;220723;1267;22534;-49
2022/07/14 16:15:24;;;;;;;4.60;3.30;;;25.40;57.10;;;;;;220146;1270;24210;-48
2022/07/14 16:20:29;;;;;;;5.50;3.70;;;25.40;57.30;;;;;;220804;1267;25240;-50
2022/07/14 16:25:35;;;;;;;6.50;2.60;;;25.40;56.80;;;;;;220581;1268;22740;-53
2022/07/14 16:30:39;;;;;;;10.10;3.50;;;25.40;57.00;;;;;;220654;1267;22568;-50
2022/07/14 16:35:48;;;;;;;5.30;3.30;;;25.40;56.70;;;;;;220560;1267;22581;-53
2022/07/14 16:40:57;;;;;;;3.50;2.50;;;25.40;56.60;;;;;;220723;1267;23008;-50
2022/07/14 16:46:07;;;;;;;4.90;3.10;;;25.40;56.50;;;;;;220454;1270;26472;-51
2022/07/14 16:51:14;;;;;;;5.00;3.60;;;25.40;56.40;;;;;;220753;1267;24246;-51
2022/07/14 16:56:17;;;;;;;5.10;3.30;;;25.40;56.40;;;;;;220400;1268;23902;-54
2022/07/14 17:01:21;;;;;;;6.00;3.10;;;25.40;56.70;;;;;;220363;1270;25298;-49
2022/07/14 17:06:28;;;;;;;5.00;3.00;;;25.40;56.30;;;;;;220674;1268;23950;-50
2022/07/14 17:11:37;;;;;;;4.40;3.10;;;25.40;56.30;;;;;;220380;1267;24242;-50
2022/07/14 17:16:47;;;;;;;5.20;2.80;;;25.40;56.50;;;;;;220291;1267;22542;-49
2022/07/14 17:22:01;;;;;;;7.50;2.90;;;25.40;56.20;;;;;;220839;1267;22532;-48
2022/07/14 17:27:04;;;;;;;4.90;3.00;;;25.40;56.20;;;;;;220653;1267;22564;-51
2022/07/14 17:32:11;;;;;;;4.40;3.20;;;25.40;56.90;;;;;;221077;1267;22528;-51
2022/07/14 17:37:14;;;;;;;5.30;3.40;;;25.40;56.00;;;;;;220514;1270;25674;-49
2022/07/14 17:42:21;;;;;;;4.10;3.10;;;25.40;55.80;;;;;;220407;1270;22529;-52
2022/07/14 17:47:28;;;;;;;6.70;3.10;;;25.40;55.70;;;;;;220524;1269;22548;-52
2022/07/14 17:52:42;;;;;;;4.40;2.90;;;25.40;55.70;;;;;;220591;1270;26587;-48
2022/07/14 17:57:47;;;;;;;6.20;3.30;;;25.40;55.30;;;;;;220964;1267;22559;-49
2022/07/14 18:02:58;;;;;;;4.30;3.20;;;25.40;55.70;;;;;;220695;1267;25499;-51
2022/07/14 18:08:04;;;;;;;4.30;3.30;;;25.40;55.90;;;;;;220542;1267;25290;-51
2022/07/14 18:13:14;;;;;;;4.70;3.30;;;25.40;55.50;;;;;;220755;1267;22535;-48
2022/07/14 18:18:18;;;;;;;3.80;2.60;;;25.40;55.50;;;;;;220558;1267;22624;-51
2022/07/14 18:23:22;;;;;;;3.70;3.10;;;25.30;55.40;;;;;;220821;1267;22666;-51
2022/07/14 18:28:37;;;;;;;5.20;3.00;;;25.30;55.70;;;;;;220474;1267;22846;-52
2022/07/14 18:33:57;;;;;;;5.50;3.00;;;25.30;55.40;;;;;;220520;1270;22716;-53
2022/07/14 18:39:23;;;;;;;4.40;3.00;;;25.30;55.40;;;;;;220761;1267;24329;-48
2022/07/14 18:50:24;;;;;;;3.90;2.90;;;25.40;55.50;;;;;;220783;1267;24286;-48
2022/07/14 18:55:28;;;;;;;4.30;3.20;;;25.30;55.50;;;;;;220266;1267;22544;-52
2022/07/14 19:00:40;;;;;;;4.40;2.80;;;25.30;55.60;;;;;;220678;1267;22572;-49
2022/07/14 19:05:50;;;;;;;3.70;3.10;;;25.30;55.60;;;;;;220408;1267;24202;-49
2022/07/14 19:10:57;;;;;;;6.20;2.80;;;25.30;56.10;;;;;;220442;1267;24374;-51
2022/07/14 19:16:06;;;;;;;4.50;3.00;;;25.30;55.90;;;;;;220475;1269;26482;-51
2022/07/14 19:21:13;;;;;;;3.50;2.70;;;25.20;56.20;;;;;;220334;1267;25242;-49
2022/07/14 19:26:22;;;;;;;3.70;3.00;;;25.20;55.90;;;;;;220768;1270;23034;-50
2022/07/14 19:31:31;;;;;;;3.70;3.10;;;25.30;56.00;;;;;;220344;1267;25371;-51
2022/07/14 19:36:45;;;;;;;4.50;2.80;;;25.20;56.00;;;;;;220603;1270;24302;-52
2022/07/14 19:41:54;;;;;;;4.10;2.50;;;25.20;56.10;;;;;;220203;1267;22552;-52
2022/07/14 19:46:59;;;;;;;3.30;2.80;;;25.20;56.10;;;;;;220806;1268;24271;-54
2022/07/14 19:52:07;;;;;;;3.40;2.90;;;25.20;56.40;;;;;;220258;1267;22681;-49
2022/07/14 19:57:13;;;;;;;3.70;2.70;;;25.20;56.20;;;;;;220464;1268;22549;-53
2022/07/14 20:02:22;;;;;;;4.00;2.80;;;25.20;56.20;;;;;;220491;1268;22769;-50
2022/07/14 20:07:28;;;;;;;2.90;2.20;;;25.20;56.20;;;;;;220275;1267;22538;-50
2022/07/14 20:12:32;;;;;;;3.90;2.80;;;25.20;56.30;;;;;;220892;1268;24216;-51
2022/07/14 20:17:37;;;;;;;4.00;2.90;;;25.20;56.30;;;;;;220416;1267;22643;-50
2022/07/14 20:22:43;;;;;;;2.90;2.40;;;25.20;56.30;;;;;;220525;1267;22706;-51
2022/07/14 20:33:10;;;;;;;3.50;2.60;;;25.10;56.30;;;;;;220178;1268;22552;-49
2022/07/14 20:38:34;;;;;;;4.40;3.30;;;25.10;56.40;;;;;;220638;1268;22547;-49
2022/07/14 20:43:38;;;;;;;3.40;2.60;;;25.10;56.50;;;;;;220331;1268;22573;-52
2022/07/14 20:48:41;;;;;;;3.50;2.50;;;25.10;56.50;;;;;;220635;1267;22547;-50
2022/07/14 20:53:45;;;;;;;3.10;2.30;;;25.10;56.50;;;;;;220971;1268;23900;-48
2022/07/14 20:58:49;;;;;;;2.90;2.50;;;25.10;56.90;;;;;;220392;1270;22548;-53
2022/07/14 21:03:53;;;;;;;3.30;2.60;;;25.10;56.50;;;;;;220536;1271;24394;-52
2022/07/14 21:08:56;;;;;;;3.80;2.70;;;25.10;56.50;;;;;;220837;1267;24363;-52
2022/07/14 21:14:00;;;;;;;4.10;2.50;;;25.10;56.70;;;;;;220705;1267;25233;-51
2022/07/14 21:19:04;;;;;;;3.80;2.70;;;25.10;56.80;;;;;;220319;1271;23901;-49
2022/07/14 21:24:08;;;;;;;2.90;2.40;;;25.10;57.00;;;;;;220280;1267;24252;-53
2022/07/14 21:29:13;;;;;;;4.10;3.10;;;25.10;56.70;;;;;;220214;1271;22553;-51
2022/07/14 21:34:17;;;;;;;2.90;2.40;;;25.10;56.80;;;;;;220558;1267;24188;-50
2022/07/14 21:39:21;;;;;;;3.40;2.80;;;25.00;57.10;;;;;;220826;1268;24261;-50
2022/07/14 21:44:25;;;;;;;4.10;2.70;;;25.10;56.80;;;;;;220674;1268;24270;-53
2022/07/14 21:49:29;;;;;;;3.20;2.50;;;25.00;56.70;;;;;;220411;1270;24104;-49
2022/07/14 21:54:34;;;;;;;3.50;2.50;;;25.10;57.20;;;;;;220435;1271;22560;-50
2022/07/14 21:59:38;;;;;;;3.80;3.10;;;25.00;57.10;;;;;;220377;1267;24285;-52
2022/07/14 22:04:42;;;;;;;3.60;2.60;;;25.00;56.90;;;;;;220534;1268;24293;-51
2022/07/14 22:09:49;;;;;;;3.40;2.50;;;25.00;56.80;;;;;;220609;1269;24002;-52
2022/07/14 22:14:53;;;;;;;3.10;2.50;;;25.00;56.80;;;;;;220418;1268;22528;-52
2022/07/14 22:20:00;;;;;;;4.20;2.80;;;25.00;56.90;;;;;;220499;1269;22841;-52
2022/07/14 22:25:04;;;;;;;3.50;2.90;;;25.00;56.80;;;;;;220245;1271;22528;-51
2022/07/14 22:30:09;;;;;;;3.30;2.70;;;25.00;56.90;;;;;;220556;1269;23841;-50
2022/07/14 22:35:13;;;;;;;3.70;2.60;;;25.00;56.80;;;;;;220466;1268;22691;-50
2022/07/14 22:40:22;;;;;;;3.70;2.90;;;25.00;56.80;;;;;;220560;1268;22535;-50
2022/07/14 22:45:25;;;;;;;5.60;2.90;;;24.90;56.70;;;;;;220332;1268;22897;-51
2022/07/14 22:50:29;;;;;;;3.50;2.70;;;24.90;56.60;;;;;;220100;1268;22553;-50
2022/07/14 22:55:37;;;;;;;3.30;2.50;;;24.90;56.50;;;;;;220482;1268;24791;-53
2022/07/14 23:00:41;;;;;;;3.10;2.30;;;24.90;56.40;;;;;;220377;1268;22541;-50
2022/07/14 23:05:45;;;;;;;3.80;2.30;;;24.90;56.30;;;;;;220164;1268;22543;-49
2022/07/14 23:10:49;;;;;;;4.20;2.40;;;24.90;56.20;;;;;;220419;1268;22573;-50
2022/07/14 23:15:52;;;;;;;3.50;2.30;;;24.90;56.00;;;;;;220198;1271;24215;-51
2022/07/14 23:20:56;;;;;;;4.20;2.60;;;24.90;55.90;;;;;;220633;1268;22568;-51
2022/07/14 23:26:00;;;;;;;4.40;2.20;;;24.90;55.80;;;;;;220294;1268;25241;-48
2022/07/14 23:31:03;;;;;;;3.20;2.60;;;24.90;55.70;;;;;;220167;1268;22559;-52
2022/07/14 23:36:07;;;;;;;2.80;1.90;;;24.90;55.70;;;;;;220505;1268;24231;-48
2022/07/14 23:41:11;;;;;;;3.50;2.30;;;24.80;55.60;;;;;;220233;1268;22545;-49
2022/07/14 23:46:15;;;;;;;3.10;2.20;;;24.80;55.50;;;;;;220345;1268;22548;-51
2022/07/14 23:51:19;;;;;;;3.20;2.20;;;24.80;55.50;;;;;;220759;1267;25450;-52
2022/07/14 23:56:23;;;;;;;3.10;2.30;;;24.80;55.20;;;;;;220624;1268;25300;-51
